Terminal Aerodrome Forecast
Issued by NWS Springfield, MO

Home | Current Version | Previous Version | Text Only | Print | Product List | Glossary On
Versions: 1 2 3 4 5 6 7 8 9 10 11 12 13 14 15 16 17 18 19
000
FTUS43 KSGF 160700 AAA
TAFSGF
TAF AMD
KSGF 160718Z 1607/1706 04008KT P6SM BKN020 BKN045
     FM161600 06005KT P6SM BKN250
     FM170200 12004KT P6SM SCT250=

USA.gov is the U.S. government's official web portal to all federal, state and local government web resources and services.